sensor_id;sensor_type;location;lat;lon;timestamp;temperature;humidity
26803;DHT22;14378;51.796;5.808;2022-09-28T00:03:09;9.60;99.90
26803;DHT22;14378;51.796;5.808;2022-09-28T00:05:09;9.60;99.90
26803;DHT22;14378;51.796;5.808;2022-09-28T00:07:12;9.60;99.90
26803;DHT22;14378;51.796;5.808;2022-09-28T00:09:13;9.50;99.90
26803;DHT22;14378;51.796;5.808;2022-09-28T00:11:16;9.50;99.90
26803;DHT22;14378;51.796;5.808;2022-09-28T00:13:17;9.50;99.90
26803;DHT22;14378;51.796;5.808;2022-09-28T00:15:18;9.50;99.90
26803;DHT22;14378;51.796;5.808;2022-09-28T00:17:19;9.50;99.90
26803;DHT22;14378;51.796;5.808;2022-09-28T00:19:22;9.50;99.90
26803;DHT22;14378;51.796;5.808;2022-09-28T00:21:26;9.50;99.90
26803;DHT22;14378;51.796;5.808;2022-09-28T00:23:28;9.50;99.90
26803;DHT22;14378;51.796;5.808;2022-09-28T00:25:29;9.60;99.90
26803;DHT22;14378;51.796;5.808;2022-09-28T00:27:31;9.60;99.90
26803;DHT22;14378;51.796;5.808;2022-09-28T00:29:34;9.60;99.90
26803;DHT22;14378;51.796;5.808;2022-09-28T00:31:35;9.60;99.90
26803;DHT22;14378;51.796;5.808;2022-09-28T00:33:36;9.60;99.90
26803;DHT22;14378;51.796;5.808;2022-09-28T00:35:37;9.70;99.90
26803;DHT22;14378;51.796;5.808;2022-09-28T00:37:38;9.70;99.90
26803;DHT22;14378;51.796;5.808;2022-09-28T00:39:39;9.70;99.90
26803;DHT22;14378;51.796;5.808;2022-09-28T00:41:41;9.70;99.90
26803;DHT22;14378;51.796;5.808;2022-09-28T00:43:42;9.70;99.90
26803;DHT22;14378;51.796;5.808;2022-09-28T00:45:43;9.70;99.90
26803;DHT22;14378;51.796;5.808;2022-09-28T00:47:47;9.70;99.90
26803;DHT22;14378;51.796;5.808;2022-09-28T00:51:54;9.60;99.90
26803;DHT22;14378;51.796;5.808;2022-09-28T00:53:55;9.60;99.90
26803;DHT22;14378;51.796;5.808;2022-09-28T00:56:02;9.60;99.90
26803;DHT22;14378;51.796;5.808;2022-09-28T00:58:09;9.60;99.90
26803;DHT22;14378;51.796;5.808;2022-09-28T01:00:12;9.60;99.90
26803;DHT22;14378;51.796;5.808;2022-09-28T01:02:16;9.70;99.90
26803;DHT22;14378;51.796;5.808;2022-09-28T01:04:17;9.60;99.90
26803;DHT22;14378;51.796;5.808;2022-09-28T01:06:21;9.70;99.90
26803;DHT22;14378;51.796;5.808;2022-09-28T01:08:25;9.70;99.90
26803;DHT22;14378;51.796;5.808;2022-09-28T01:10:30;9.70;99.90
26803;DHT22;14378;51.796;5.808;2022-09-28T01:12:31;9.70;99.90
26803;DHT22;14378;51.796;5.808;2022-09-28T01:14:33;9.70;99.90
26803;DHT22;14378;51.796;5.808;2022-09-28T01:16:47;9.70;99.90
26803;DHT22;14378;51.796;5.808;2022-09-28T01:24:13;9.70;99.90
26803;DHT22;14378;51.796;5.808;2022-09-28T01:26:46;9.80;99.90
26803;DHT22;14378;51.796;5.808;2022-09-28T01:28:52;9.80;99.90
26803;DHT22;14378;51.796;5.808;2022-09-28T01:31:11;9.80;99.90
26803;DHT22;14378;51.796;5.808;2022-09-28T01:33:19;9.80;99.90
26803;DHT22;14378;51.796;5.808;2022-09-28T01:38:11;9.70;99.90
26803;DHT22;14378;51.796;5.808;2022-09-28T01:40:14;9.70;99.90
26803;DHT22;14378;51.796;5.808;2022-09-28T01:42:21;9.70;99.90
26803;DHT22;14378;51.796;5.808;2022-09-28T01:44:25;9.60;99.90
26803;DHT22;14378;51.796;5.808;2022-09-28T01:46:38;9.70;99.90
26803;DHT22;14378;51.796;5.808;2022-09-28T01:48:58;9.70;99.90
26803;DHT22;14378;51.796;5.808;2022-09-28T01:51:07;9.70;99.90
26803;DHT22;14378;51.796;5.808;2022-09-28T01:53:19;9.80;99.90
26803;DHT22;14378;51.796;5.808;2022-09-28T01:59:56;9.80;99.90
26803;DHT22;14378;51.796;5.808;2022-09-28T02:02:09;9.80;99.90
26803;DHT22;14378;51.796;5.808;2022-09-28T02:04:32;9.80;99.90
26803;DHT22;14378;51.796;5.808;2022-09-28T02:07:24;9.80;99.90
26803;DHT22;14378;51.796;5.808;2022-09-28T02:09:15;9.70;99.90
26803;DHT22;14378;51.796;5.808;2022-09-28T02:11:22;9.60;99.90
26803;DHT22;14378;51.796;5.808;2022-09-28T02:13:32;9.60;99.90
26803;DHT22;14378;51.796;5.808;2022-09-28T02:15:45;9.50;99.90
26803;DHT22;14378;51.796;5.808;2022-09-28T02:17:49;9.40;99.90
26803;DHT22;14378;51.796;5.808;2022-09-28T02:19:52;9.40;99.90
26803;DHT22;14378;51.796;5.808;2022-09-28T02:22:24;9.40;99.90
26803;DHT22;14378;51.796;5.808;2022-09-28T02:26:52;9.20;99.90
26803;DHT22;14378;51.796;5.808;2022-09-28T02:28:55;9.20;99.90
26803;DHT22;14378;51.796;5.808;2022-09-28T02:30:57;9.10;99.90
26803;DHT22;14378;51.796;5.808;2022-09-28T02:33:20;9.10;99.90
26803;DHT22;14378;51.796;5.808;2022-09-28T02:35:23;9.10;99.90
26803;DHT22;14378;51.796;5.808;2022-09-28T02:37:26;9.00;99.90
26803;DHT22;14378;51.796;5.808;2022-09-28T02:39:27;9.00;99.90
26803;DHT22;14378;51.796;5.808;2022-09-28T02:51:18;8.90;99.90
26803;DHT22;14378;51.796;5.808;2022-09-28T02:56:10;8.90;99.90
26803;DHT22;14378;51.796;5.808;2022-09-28T02:58:39;8.90;99.90
26803;DHT22;14378;51.796;5.808;2022-09-28T03:03:59;8.90;99.90
26803;DHT22;14378;51.796;5.808;2022-09-28T03:08:54;9.00;99.90
26803;DHT22;14378;51.796;5.808;2022-09-28T03:11:14;9.00;99.90
26803;DHT22;14378;51.796;5.808;2022-09-28T03:13:22;9.00;99.90
26803;DHT22;14378;51.796;5.808;2022-09-28T03:15:29;9.00;99.90
26803;DHT22;14378;51.796;5.808;2022-09-28T03:17:30;9.00;99.90
26803;DHT22;14378;51.796;5.808;2022-09-28T03:19:33;9.00;99.90
26803;DHT22;14378;51.796;5.808;2022-09-28T03:21:35;9.00;99.90
26803;DHT22;14378;51.796;5.808;2022-09-28T03:23:37;9.00;99.90
26803;DHT22;14378;51.796;5.808;2022-09-28T03:25:38;9.00;99.90
26803;DHT22;14378;51.796;5.808;2022-09-28T03:27:40;9.10;99.90
26803;DHT22;14378;51.796;5.808;2022-09-28T03:29:42;9.10;99.90
26803;DHT22;14378;51.796;5.808;2022-09-28T03:31:43;9.10;99.90
26803;DHT22;14378;51.796;5.808;2022-09-28T03:33:44;9.10;99.90
26803;DHT22;14378;51.796;5.808;2022-09-28T03:35:47;9.20;99.90
26803;DHT22;14378;51.796;5.808;2022-09-28T03:37:48;9.20;99.90
26803;DHT22;14378;51.796;5.808;2022-09-28T03:39:49;9.20;99.90
26803;DHT22;14378;51.796;5.808;2022-09-28T03:41:50;9.30;99.90
26803;DHT22;14378;51.796;5.808;2022-09-28T03:43:54;9.30;99.90
26803;DHT22;14378;51.796;5.808;2022-09-28T03:45:59;9.30;99.90
26803;DHT22;14378;51.796;5.808;2022-09-28T03:48:01;9.30;99.90
26803;DHT22;14378;51.796;5.808;2022-09-28T03:50:03;9.30;99.90
26803;DHT22;14378;51.796;5.808;2022-09-28T03:52:04;9.30;99.90
26803;DHT22;14378;51.796;5.808;2022-09-28T03:54:05;9.30;99.90
26803;DHT22;14378;51.796;5.808;2022-09-28T03:56:13;9.30;99.90
26803;DHT22;14378;51.796;5.808;2022-09-28T03:58:16;9.30;99.90
26803;DHT22;14378;51.796;5.808;2022-09-28T04:00:17;9.40;99.90
26803;DHT22;14378;51.796;5.808;2022-09-28T04:02:18;9.40;99.90
26803;DHT22;14378;51.796;5.808;2022-09-28T04:04:20;9.40;99.90
26803;DHT22;14378;51.796;5.808;2022-09-28T04:06:22;9.50;99.90
26803;DHT22;14378;51.796;5.808;2022-09-28T04:08:27;9.50;99.90
26803;DHT22;14378;51.796;5.808;2022-09-28T04:10:28;9.50;99.90
26803;DHT22;14378;51.796;5.808;2022-09-28T04:12:29;9.50;99.90
26803;DHT22;14378;51.796;5.808;2022-09-28T04:14:30;9.50;99.90
26803;DHT22;14378;51.796;5.808;2022-09-28T04:16:31;9.50;99.90
26803;DHT22;14378;51.796;5.808;2022-09-28T04:18:42;9.50;99.90
26803;DHT22;14378;51.796;5.808;2022-09-28T04:21:19;9.40;99.90
26803;DHT22;14378;51.796;5.808;2022-09-28T04:23:26;9.40;99.90
26803;DHT22;14378;51.796;5.808;2022-09-28T04:25:27;9.40;99.90
26803;DHT22;14378;51.796;5.808;2022-09-28T04:27:29;9.30;99.90
26803;DHT22;14378;51.796;5.808;2022-09-28T04:29:48;9.30;99.90
26803;DHT22;14378;51.796;5.808;2022-09-28T04:31:53;9.30;99.90
26803;DHT22;14378;51.796;5.808;2022-09-28T04:34:01;9.30;99.90
26803;DHT22;14378;51.796;5.808;2022-09-28T04:36:01;9.30;99.90
26803;DHT22;14378;51.796;5.808;2022-09-28T04:38:02;9.30;99.90
26803;DHT22;14378;51.796;5.808;2022-09-28T04:40:05;9.30;99.90
26803;DHT22;14378;51.796;5.808;2022-09-28T04:42:08;9.30;99.90
26803;DHT22;14378;51.796;5.808;2022-09-28T04:44:10;9.30;99.90
26803;DHT22;14378;51.796;5.808;2022-09-28T04:46:11;9.30;99.90
26803;DHT22;14378;51.796;5.808;2022-09-28T04:48:32;9.30;99.90
26803;DHT22;14378;51.796;5.808;2022-09-28T04:50:41;9.30;99.90
26803;DHT22;14378;51.796;5.808;2022-09-28T04:52:56;9.30;99.90
26803;DHT22;14378;51.796;5.808;2022-09-28T04:54:57;9.30;99.90
26803;DHT22;14378;51.796;5.808;2022-09-28T04:56:59;9.30;99.90
26803;DHT22;14378;51.796;5.808;2022-09-28T04:59:01;9.20;99.90
26803;DHT22;14378;51.796;5.808;2022-09-28T05:01:08;9.20;99.90
26803;DHT22;14378;51.796;5.808;2022-09-28T05:03:45;9.20;99.90
26803;DHT22;14378;51.796;5.808;2022-09-28T05:06:12;9.20;99.90
26803;DHT22;14378;51.796;5.808;2022-09-28T05:08:17;9.10;99.90
26803;DHT22;14378;51.796;5.808;2022-09-28T05:10:18;9.10;99.90
26803;DHT22;14378;51.796;5.808;2022-09-28T05:12:21;9.10;99.90
26803;DHT22;14378;51.796;5.808;2022-09-28T05:14:23;9.10;99.90
26803;DHT22;14378;51.796;5.808;2022-09-28T05:16:25;9.00;99.90
26803;DHT22;14378;51.796;5.808;2022-09-28T05:19:05;9.00;99.90
26803;DHT22;14378;51.796;5.808;2022-09-28T05:21:13;9.00;99.90
26803;DHT22;14378;51.796;5.808;2022-09-28T05:23:15;8.90;99.90
26803;DHT22;14378;51.796;5.808;2022-09-28T05:25:18;8.90;99.90
26803;DHT22;14378;51.796;5.808;2022-09-28T05:27:27;8.90;99.90
26803;DHT22;14378;51.796;5.808;2022-09-28T05:29:41;8.90;99.90
26803;DHT22;14378;51.796;5.808;2022-09-28T05:32:17;8.90;99.90
26803;DHT22;14378;51.796;5.808;2022-09-28T05:34:30;8.80;99.90
26803;DHT22;14378;51.796;5.808;2022-09-28T05:36:31;8.80;99.90
26803;DHT22;14378;51.796;5.808;2022-09-28T05:38:32;8.80;99.90
26803;DHT22;14378;51.796;5.808;2022-09-28T05:40:35;8.80;99.90
26803;DHT22;14378;51.796;5.808;2022-09-28T05:42:36;8.70;99.90
26803;DHT22;14378;51.796;5.808;2022-09-28T05:44:37;8.80;99.90
26803;DHT22;14378;51.796;5.808;2022-09-28T05:46:38;8.70;99.90
26803;DHT22;14378;51.796;5.808;2022-09-28T05:48:39;8.70;99.90
26803;DHT22;14378;51.796;5.808;2022-09-28T05:50:41;8.70;99.90
26803;DHT22;14378;51.796;5.808;2022-09-28T05:52:42;8.70;99.90
26803;DHT22;14378;51.796;5.808;2022-09-28T05:54:45;8.60;99.90
26803;DHT22;14378;51.796;5.808;2022-09-28T05:56:46;8.60;99.90
26803;DHT22;14378;51.796;5.808;2022-09-28T05:58:47;8.60;99.90
26803;DHT22;14378;51.796;5.808;2022-09-28T06:00:55;8.60;99.90
26803;DHT22;14378;51.796;5.808;2022-09-28T06:02:57;8.60;99.90
26803;DHT22;14378;51.796;5.808;2022-09-28T06:04:59;8.60;99.90
26803;DHT22;14378;51.796;5.808;2022-09-28T06:07:00;8.60;99.90
26803;DHT22;14378;51.796;5.808;2022-09-28T06:09:05;8.60;99.90
26803;DHT22;14378;51.796;5.808;2022-09-28T06:11:17;8.50;99.90
26803;DHT22;14378;51.796;5.808;2022-09-28T06:13:18;8.50;99.90
26803;DHT22;14378;51.796;5.808;2022-09-28T06:15:21;8.50;99.90
26803;DHT22;14378;51.796;5.808;2022-09-28T06:17:23;8.50;99.90
26803;DHT22;14378;51.796;5.808;2022-09-28T06:19:43;8.50;99.90
26803;DHT22;14378;51.796;5.808;2022-09-28T06:21:59;8.50;99.90
26803;DHT22;14378;51.796;5.808;2022-09-28T06:24:01;8.50;99.90
26803;DHT22;14378;51.796;5.808;2022-09-28T06:26:04;8.50;99.90
26803;DHT22;14378;51.796;5.808;2022-09-28T06:28:08;8.50;99.90
26803;DHT22;14378;51.796;5.808;2022-09-28T06:30:09;8.50;99.90
26803;DHT22;14378;51.796;5.808;2022-09-28T06:32:10;8.50;99.90
26803;DHT22;14378;51.796;5.808;2022-09-28T06:34:14;8.60;99.90
26803;DHT22;14378;51.796;5.808;2022-09-28T06:36:15;8.60;99.90
26803;DHT22;14378;51.796;5.808;2022-09-28T06:38:17;8.60;99.90
26803;DHT22;14378;51.796;5.808;2022-09-28T06:40:20;8.60;99.90
26803;DHT22;14378;51.796;5.808;2022-09-28T06:42:24;8.60;99.90
26803;DHT22;14378;51.796;5.808;2022-09-28T06:44:54;8.70;99.90
26803;DHT22;14378;51.796;5.808;2022-09-28T06:47:15;8.70;99.90
26803;DHT22;14378;51.796;5.808;2022-09-28T06:49:34;8.70;99.90
26803;DHT22;14378;51.796;5.808;2022-09-28T06:51:58;8.70;99.90
26803;DHT22;14378;51.796;5.808;2022-09-28T06:54:22;8.80;99.90
26803;DHT22;14378;51.796;5.808;2022-09-28T06:56:34;8.80;99.90
26803;DHT22;14378;51.796;5.808;2022-09-28T06:58:36;8.80;99.90
26803;DHT22;14378;51.796;5.808;2022-09-28T07:00:42;8.80;99.90
26803;DHT22;14378;51.796;5.808;2022-09-28T07:02:44;8.90;99.90
26803;DHT22;14378;51.796;5.808;2022-09-28T07:05:11;8.90;99.90
26803;DHT22;14378;51.796;5.808;2022-09-28T07:07:47;9.00;99.90
26803;DHT22;14378;51.796;5.808;2022-09-28T07:09:57;9.10;99.90
26803;DHT22;14378;51.796;5.808;2022-09-28T07:12:12;9.10;99.90
26803;DHT22;14378;51.796;5.808;2022-09-28T07:14:51;9.20;99.90
26803;DHT22;14378;51.796;5.808;2022-09-28T07:16:58;9.30;99.90
26803;DHT22;14378;51.796;5.808;2022-09-28T07:19:01;9.30;99.90
26803;DHT22;14378;51.796;5.808;2022-09-28T07:21:02;9.40;99.90
26803;DHT22;14378;51.796;5.808;2022-09-28T07:23:06;9.40;99.90
26803;DHT22;14378;51.796;5.808;2022-09-28T07:25:28;9.50;99.90
26803;DHT22;14378;51.796;5.808;2022-09-28T07:28:02;9.60;99.90
26803;DHT22;14378;51.796;5.808;2022-09-28T07:30:25;9.60;99.90
26803;DHT22;14378;51.796;5.808;2022-09-28T07:32:40;9.70;99.90
26803;DHT22;14378;51.796;5.808;2022-09-28T07:35:00;9.70;99.90
26803;DHT22;14378;51.796;5.808;2022-09-28T07:37:13;9.80;99.90
26803;DHT22;14378;51.796;5.808;2022-09-28T07:39:14;9.80;99.90
26803;DHT22;14378;51.796;5.808;2022-09-28T07:41:15;9.90;99.90
26803;DHT22;14378;51.796;5.808;2022-09-28T07:43:23;9.90;99.90
26803;DHT22;14378;51.796;5.808;2022-09-28T07:45:26;9.90;99.90
26803;DHT22;14378;51.796;5.808;2022-09-28T07:47:30;9.90;99.90
26803;DHT22;14378;51.796;5.808;2022-09-28T07:50:04;10.00;99.90
26803;DHT22;14378;51.796;5.808;2022-09-28T07:52:16;10.00;99.90
26803;DHT22;14378;51.796;5.808;2022-09-28T07:54:37;10.10;99.90
26803;DHT22;14378;51.796;5.808;2022-09-28T07:57:05;10.10;99.90
26803;DHT22;14378;51.796;5.808;2022-09-28T07:59:20;10.20;99.90
26803;DHT22;14378;51.796;5.808;2022-09-28T08:01:42;10.30;99.90
26803;DHT22;14378;51.796;5.808;2022-09-28T08:03:47;10.40;99.90
26803;DHT22;14378;51.796;5.808;2022-09-28T08:05:48;10.50;99.90
26803;DHT22;14378;51.796;5.808;2022-09-28T08:07:49;10.60;99.90
26803;DHT22;14378;51.796;5.808;2022-09-28T08:09:55;10.60;99.90
26803;DHT22;14378;51.796;5.808;2022-09-28T08:12:22;10.80;99.90
26803;DHT22;14378;51.796;5.808;2022-09-28T08:14:53;10.80;99.90
26803;DHT22;14378;51.796;5.808;2022-09-28T08:17:19;10.90;99.90
26803;DHT22;14378;51.796;5.808;2022-09-28T08:19:24;11.00;99.90
26803;DHT22;14378;51.796;5.808;2022-09-28T08:21:26;11.10;99.90
26803;DHT22;14378;51.796;5.808;2022-09-28T08:23:45;11.20;99.90
26803;DHT22;14378;51.796;5.808;2022-09-28T08:25:47;11.20;99.90
26803;DHT22;14378;51.796;5.808;2022-09-28T08:27:48;11.30;99.90
26803;DHT22;14378;51.796;5.808;2022-09-28T08:29:50;11.40;99.90
26803;DHT22;14378;51.796;5.808;2022-09-28T08:32:13;11.50;99.90
26803;DHT22;14378;51.796;5.808;2022-09-28T08:34:40;11.70;99.90
26803;DHT22;14378;51.796;5.808;2022-09-28T08:36:40;11.80;99.90
26803;DHT22;14378;51.796;5.808;2022-09-28T08:39:02;11.90;99.90
26803;DHT22;14378;51.796;5.808;2022-09-28T08:41:11;12.00;99.90
26803;DHT22;14378;51.796;5.808;2022-09-28T08:46:44;12.00;99.90
26803;DHT22;14378;51.796;5.808;2022-09-28T08:49:35;12.00;99.90
26803;DHT22;14378;51.796;5.808;2022-09-28T08:52:17;12.00;99.90
26803;DHT22;14378;51.796;5.808;2022-09-28T08:57:06;12.20;99.90
26803;DHT22;14378;51.796;5.808;2022-09-28T08:59:19;12.40;99.90
26803;DHT22;14378;51.796;5.808;2022-09-28T09:01:34;12.60;99.90
26803;DHT22;14378;51.796;5.808;2022-09-28T09:03:39;12.60;99.90
26803;DHT22;14378;51.796;5.808;2022-09-28T09:10:52;13.10;99.90
26803;DHT22;14378;51.796;5.808;2022-09-28T09:17:55;13.50;99.90
26803;DHT22;14378;51.796;5.808;2022-09-28T09:22:41;13.80;99.90
26803;DHT22;14378;51.796;5.808;2022-09-28T09:24:51;14.00;99.90
26803;DHT22;14378;51.796;5.808;2022-09-28T09:34:12;14.50;99.90
26803;DHT22;14378;51.796;5.808;2022-09-28T09:42:39;15.00;99.90
26803;DHT22;14378;51.796;5.808;2022-09-28T09:47:24;15.70;99.90
26803;DHT22;14378;51.796;5.808;2022-09-28T09:49:43;15.70;99.90
26803;DHT22;14378;51.796;5.808;2022-09-28T09:52:04;15.70;99.90
26803;DHT22;14378;51.796;5.808;2022-09-28T09:54:33;15.90;99.90
26803;DHT22;14378;51.796;5.808;2022-09-28T09:56:41;16.20;99.90
26803;DHT22;14378;51.796;5.808;2022-09-28T09:58:54;16.60;99.90
26803;DHT22;14378;51.796;5.808;2022-09-28T10:01:10;16.80;99.90
26803;DHT22;14378;51.796;5.808;2022-09-28T10:03:33;16.70;99.90
26803;DHT22;14378;51.796;5.808;2022-09-28T10:05:49;16.70;99.90
26803;DHT22;14378;51.796;5.808;2022-09-28T10:09:57;16.80;99.90
26803;DHT22;14378;51.796;5.808;2022-09-28T10:12:23;16.90;99.90
26803;DHT22;14378;51.796;5.808;2022-09-28T10:14:24;17.30;99.90
26803;DHT22;14378;51.796;5.808;2022-09-28T10:16:38;17.50;99.90
26803;DHT22;14378;51.796;5.808;2022-09-28T10:18:44;17.60;99.90
26803;DHT22;14378;51.796;5.808;2022-09-28T10:21:06;17.60;99.90
26803;DHT22;14378;51.796;5.808;2022-09-28T10:23:37;17.80;99.90
26803;DHT22;14378;51.796;5.808;2022-09-28T10:25:40;17.90;99.90
26803;DHT22;14378;51.796;5.808;2022-09-28T10:27:43;18.00;99.90
26803;DHT22;14378;51.796;5.808;2022-09-28T10:29:51;18.10;99.90
26803;DHT22;14378;51.796;5.808;2022-09-28T10:31:53;18.20;99.90
26803;DHT22;14378;51.796;5.808;2022-09-28T10:34:11;18.30;99.90
26803;DHT22;14378;51.796;5.808;2022-09-28T10:36:15;18.10;99.90
26803;DHT22;14378;51.796;5.808;2022-09-28T10:38:18;18.30;99.90
26803;DHT22;14378;51.796;5.808;2022-09-28T10:43:13;18.60;99.90
26803;DHT22;14378;51.796;5.808;2022-09-28T10:45:20;18.90;99.90
26803;DHT22;14378;51.796;5.808;2022-09-28T10:47:27;19.20;99.90
26803;DHT22;14378;51.796;5.808;2022-09-28T10:49:38;19.30;99.90
26803;DHT22;14378;51.796;5.808;2022-09-28T10:51:40;19.40;99.90
26803;DHT22;14378;51.796;5.808;2022-09-28T10:53:59;19.40;99.90
26803;DHT22;14378;51.796;5.808;2022-09-28T10:56:21;19.40;99.90
26803;DHT22;14378;51.796;5.808;2022-09-28T10:58:38;19.60;99.90
26803;DHT22;14378;51.796;5.808;2022-09-28T11:00:46;19.80;99.90
26803;DHT22;14378;51.796;5.808;2022-09-28T11:02:56;19.90;99.90
26803;DHT22;14378;51.796;5.808;2022-09-28T11:05:00;20.00;99.90
26803;DHT22;14378;51.796;5.808;2022-09-28T11:07:27;20.10;99.90
26803;DHT22;14378;51.796;5.808;2022-09-28T11:09:35;20.10;99.90
26803;DHT22;14378;51.796;5.808;2022-09-28T11:11:42;20.40;99.90
26803;DHT22;14378;51.796;5.808;2022-09-28T11:15:56;20.90;99.90
26803;DHT22;14378;51.796;5.808;2022-09-28T11:18:24;21.00;99.90
26803;DHT22;14378;51.796;5.808;2022-09-28T11:22:38;21.20;99.90
26803;DHT22;14378;51.796;5.808;2022-09-28T11:24:46;21.30;99.90
26803;DHT22;14378;51.796;5.808;2022-09-28T11:26:53;21.50;99.90
26803;DHT22;14378;51.796;5.808;2022-09-28T11:28:58;21.70;99.90
26803;DHT22;14378;51.796;5.808;2022-09-28T11:31:11;21.50;99.90
26803;DHT22;14378;51.796;5.808;2022-09-28T11:33:40;21.20;99.90
26803;DHT22;14378;51.796;5.808;2022-09-28T11:36:15;20.90;99.90
26803;DHT22;14378;51.796;5.808;2022-09-28T11:46:14;20.20;99.90
26803;DHT22;14378;51.796;5.808;2022-09-28T11:48:40;20.20;99.90
26803;DHT22;14378;51.796;5.808;2022-09-28T11:55:39;19.80;99.90
26803;DHT22;14378;51.796;5.808;2022-09-28T11:57:47;19.80;99.90
26803;DHT22;14378;51.796;5.808;2022-09-28T11:59:57;19.70;99.90
26803;DHT22;14378;51.796;5.808;2022-09-28T12:02:11;19.70;99.90
26803;DHT22;14378;51.796;5.808;2022-09-28T12:04:42;19.70;99.90
26803;DHT22;14378;51.796;5.808;2022-09-28T12:06:49;19.70;99.90
26803;DHT22;14378;51.796;5.808;2022-09-28T12:09:41;19.90;99.90
26803;DHT22;14378;51.796;5.808;2022-09-28T12:11:57;20.30;99.90
26803;DHT22;14378;51.796;5.808;2022-09-28T12:14:27;20.40;99.90
26803;DHT22;14378;51.796;5.808;2022-09-28T12:16:47;20.40;99.90
26803;DHT22;14378;51.796;5.808;2022-09-28T12:19:04;20.40;99.90
26803;DHT22;14378;51.796;5.808;2022-09-28T12:23:32;20.30;99.90
26803;DHT22;14378;51.796;5.808;2022-09-28T12:25:43;20.20;99.90
26803;DHT22;14378;51.796;5.808;2022-09-28T12:28:00;20.10;99.90
26803;DHT22;14378;51.796;5.808;2022-09-28T12:30:22;20.30;99.90
26803;DHT22;14378;51.796;5.808;2022-09-28T12:34:30;20.90;99.90
26803;DHT22;14378;51.796;5.808;2022-09-28T12:39:14;21.50;99.90
26803;DHT22;14378;51.796;5.808;2022-09-28T12:41:44;21.40;99.90
26803;DHT22;14378;51.796;5.808;2022-09-28T12:58:02;21.70;99.80
26803;DHT22;14378;51.796;5.808;2022-09-28T13:00:14;21.10;99.50
26803;DHT22;14378;51.796;5.808;2022-09-28T13:05:00;20.50;99.90
26803;DHT22;14378;51.796;5.808;2022-09-28T13:07:08;20.60;99.90
26803;DHT22;14378;51.796;5.808;2022-09-28T13:09:22;20.50;99.90
26803;DHT22;14378;51.796;5.808;2022-09-28T13:16:22;19.70;99.90
26803;DHT22;14378;51.796;5.808;2022-09-28T13:18:36;19.20;99.90
26803;DHT22;14378;51.796;5.808;2022-09-28T13:20:44;18.80;99.90
26803;DHT22;14378;51.796;5.808;2022-09-28T13:25:15;18.10;99.90
26803;DHT22;14378;51.796;5.808;2022-09-28T13:27:28;17.80;99.90
26803;DHT22;14378;51.796;5.808;2022-09-28T13:29:32;17.40;99.90
26803;DHT22;14378;51.796;5.808;2022-09-28T13:31:37;17.10;99.90
26803;DHT22;14378;51.796;5.808;2022-09-28T13:33:43;16.90;99.90
26803;DHT22;14378;51.796;5.808;2022-09-28T13:35:45;16.60;99.90
26803;DHT22;14378;51.796;5.808;2022-09-28T13:40:15;16.30;99.90
26803;DHT22;14378;51.796;5.808;2022-09-28T13:59:20;16.20;99.90
26803;DHT22;14378;51.796;5.808;2022-09-28T14:01:28;16.10;99.90
26803;DHT22;14378;51.796;5.808;2022-09-28T14:10:23;15.50;99.90
26803;DHT22;14378;51.796;5.808;2022-09-28T14:14:50;15.30;99.90
26803;DHT22;14378;51.796;5.808;2022-09-28T14:19:28;15.20;99.90
26803;DHT22;14378;51.796;5.808;2022-09-28T14:26:41;15.20;99.90
26803;DHT22;14378;51.796;5.808;2022-09-28T14:29:30;15.10;99.90
26803;DHT22;14378;51.796;5.808;2022-09-28T14:31:32;15.00;99.90
26803;DHT22;14378;51.796;5.808;2022-09-28T14:33:33;14.90;99.90
26803;DHT22;14378;51.796;5.808;2022-09-28T14:35:42;14.80;99.90
26803;DHT22;14378;51.796;5.808;2022-09-28T14:37:48;14.70;99.90
26803;DHT22;14378;51.796;5.808;2022-09-28T14:40:30;14.70;99.90
26803;DHT22;14378;51.796;5.808;2022-09-28T14:43:20;14.60;99.90
26803;DHT22;14378;51.796;5.808;2022-09-28T14:45:35;14.50;99.90
26803;DHT22;14378;51.796;5.808;2022-09-28T14:48:09;14.40;99.90
26803;DHT22;14378;51.796;5.808;2022-09-28T14:50:23;14.40;99.90
26803;DHT22;14378;51.796;5.808;2022-09-28T14:52:41;14.30;99.90
26803;DHT22;14378;51.796;5.808;2022-09-28T14:54:48;14.30;99.90
26803;DHT22;14378;51.796;5.808;2022-09-28T14:58:57;14.20;99.90
26803;DHT22;14378;51.796;5.808;2022-09-28T15:01:03;14.10;99.90
26803;DHT22;14378;51.796;5.808;2022-09-28T15:03:05;14.10;99.90
26803;DHT22;14378;51.796;5.808;2022-09-28T15:05:17;14.10;99.90
26803;DHT22;14378;51.796;5.808;2022-09-28T15:07:34;14.00;99.90
26803;DHT22;14378;51.796;5.808;2022-09-28T15:09:43;14.10;99.90
26803;DHT22;14378;51.796;5.808;2022-09-28T15:11:47;13.90;99.90
26803;DHT22;14378;51.796;5.808;2022-09-28T15:13:49;13.80;99.90
26803;DHT22;14378;51.796;5.808;2022-09-28T15:16:06;13.50;99.90
26803;DHT22;14378;51.796;5.808;2022-09-28T15:20:25;13.30;99.90
26803;DHT22;14378;51.796;5.808;2022-09-28T15:22:29;13.20;99.90
26803;DHT22;14378;51.796;5.808;2022-09-28T15:24:33;13.30;99.90
26803;DHT22;14378;51.796;5.808;2022-09-28T15:26:34;13.30;99.90
26803;DHT22;14378;51.796;5.808;2022-09-28T15:28:43;13.30;99.90
26803;DHT22;14378;51.796;5.808;2022-09-28T15:30:46;13.30;99.90
26803;DHT22;14378;51.796;5.808;2022-09-28T15:32:47;13.30;99.90
26803;DHT22;14378;51.796;5.808;2022-09-28T15:34:48;13.30;99.90
26803;DHT22;14378;51.796;5.808;2022-09-28T15:36:54;13.40;99.90
26803;DHT22;14378;51.796;5.808;2022-09-28T15:38:59;13.40;99.90
26803;DHT22;14378;51.796;5.808;2022-09-28T15:41:08;13.40;99.90
26803;DHT22;14378;51.796;5.808;2022-09-28T15:43:25;13.40;99.90
26803;DHT22;14378;51.796;5.808;2022-09-28T15:45:36;13.40;99.90
26803;DHT22;14378;51.796;5.808;2022-09-28T15:47:40;13.40;99.90
26803;DHT22;14378;51.796;5.808;2022-09-28T15:49:55;13.50;99.90
26803;DHT22;14378;51.796;5.808;2022-09-28T15:51:58;13.40;99.90
26803;DHT22;14378;51.796;5.808;2022-09-28T15:56:09;13.40;99.90
26803;DHT22;14378;51.796;5.808;2022-09-28T16:00:27;13.40;99.90
26803;DHT22;14378;51.796;5.808;2022-09-28T16:02:29;13.50;99.90
26803;DHT22;14378;51.796;5.808;2022-09-28T16:04:57;13.50;99.90
26803;DHT22;14378;51.796;5.808;2022-09-28T16:09:31;13.50;99.90
26803;DHT22;14378;51.796;5.808;2022-09-28T16:11:38;13.50;99.90
26803;DHT22;14378;51.796;5.808;2022-09-28T16:14:05;13.50;99.90
26803;DHT22;14378;51.796;5.808;2022-09-28T16:16:13;13.50;99.90
26803;DHT22;14378;51.796;5.808;2022-09-28T16:18:18;13.60;99.90
26803;DHT22;14378;51.796;5.808;2022-09-28T16:20:32;13.60;99.90
26803;DHT22;14378;51.796;5.808;2022-09-28T16:22:33;13.70;99.90
26803;DHT22;14378;51.796;5.808;2022-09-28T16:24:36;13.70;99.90
26803;DHT22;14378;51.796;5.808;2022-09-28T16:26:37;13.70;99.90
26803;DHT22;14378;51.796;5.808;2022-09-28T16:31:43;13.70;99.90
26803;DHT22;14378;51.796;5.808;2022-09-28T16:33:28;13.70;99.90
26803;DHT22;14378;51.796;5.808;2022-09-28T16:37:42;13.70;99.90
26803;DHT22;14378;51.796;5.808;2022-09-28T16:39:43;13.70;99.90
26803;DHT22;14378;51.796;5.808;2022-09-28T16:41:58;13.70;99.90
26803;DHT22;14378;51.796;5.808;2022-09-28T16:44:02;13.70;99.90